createdAt,value
2023-04-24T00:00:47.619Z,93.79
2023-04-24T00:01:47.642Z,93.69
2023-04-24T00:02:47.841Z,93.79
2023-04-24T00:03:47.692Z,93.89
2023-04-24T00:04:47.621Z,93.89
2023-04-24T00:05:47.547Z,93.69
2023-04-24T00:06:47.540Z,93.44
2023-04-24T00:07:47.519Z,93.33
2023-04-24T00:08:47.508Z,93.54
2023-04-24T00:09:47.526Z,93.33
2023-04-24T00:10:47.486Z,93.44
2023-04-24T00:11:47.466Z,93.44
2023-04-24T00:12:47.466Z,93.33
2023-04-24T00:13:47.450Z,93.24
2023-04-24T00:14:47.448Z,93.24
2023-04-24T00:15:47.421Z,93.33
2023-04-24T00:16:47.437Z,93.65
2023-04-24T00:17:47.433Z,93.65
2023-04-24T00:18:47.385Z,93.65
2023-04-24T00:19:47.378Z,93.59
2023-04-24T00:20:47.356Z,93.54
2023-04-24T00:21:47.328Z,93.48
2023-04-24T00:22:47.320Z,93.28
2023-04-24T00:23:47.300Z,93.18
2023-04-24T00:24:47.317Z,93.38
2023-04-24T00:25:47.291Z,93.28
2023-04-24T00:26:47.280Z,93.28
2023-04-24T00:27:47.250Z,93.38
2023-04-24T00:28:47.248Z,93.59
2023-04-24T00:29:47.249Z,93.59
2023-04-24T00:30:47.214Z,93.59
2023-04-24T00:31:47.279Z,93.59
2023-04-24T00:32:47.230Z,93.69
2023-04-24T00:33:47.172Z,93.59
2023-04-24T00:34:47.185Z,93.38
2023-04-24T00:35:47.160Z,93.18
2023-04-24T00:36:47.141Z,92.97
2023-04-24T00:37:47.123Z,92.97
2023-04-24T00:38:47.119Z,93.18
2023-04-24T00:39:47.113Z,93.28
2023-04-24T00:40:47.092Z,93.18
2023-04-24T00:41:47.065Z,93.28
2023-04-24T00:42:47.058Z,93.28
2023-04-24T00:43:47.054Z,93.18
2023-04-24T00:44:47.044Z,93.18
2023-04-24T00:45:47.119Z,93.18
2023-04-24T00:46:47.005Z,93.38
2023-04-24T00:47:47.001Z,93.48
2023-04-24T00:48:46.973Z,93.59
2023-04-24T00:49:46.978Z,93.59
2023-04-24T00:50:46.946Z,93.69
2023-04-24T00:51:46.934Z,93.59
2023-04-24T00:52:46.970Z,93.48
2023-04-24T00:53:46.910Z,93.48
2023-04-24T00:54:46.912Z,93.48
2023-04-24T00:55:46.887Z,93.59
2023-04-24T00:56:46.866Z,93.48
2023-04-24T00:57:46.862Z,93.48
2023-04-24T00:58:46.862Z,93.38
2023-04-24T00:59:46.846Z,93.28
2023-04-24T01:00:46.819Z,93.07
2023-04-24T01:01:46.964Z,92.97
2023-04-24T01:02:46.970Z,92.87
2023-04-24T01:03:46.938Z,92.87
2023-04-24T01:04:46.773Z,92.97
2023-04-24T01:05:46.746Z,93.18
2023-04-24T01:06:46.760Z,93.18
2023-04-24T01:07:46.872Z,93.28
2023-04-24T01:08:46.710Z,93.48
2023-04-24T01:09:46.713Z,93.48
2023-04-24T01:10:46.688Z,93.48
2023-04-24T01:11:46.679Z,93.33
2023-04-24T01:12:46.683Z,93.03
2023-04-24T01:13:46.647Z,92.93
2023-04-24T01:14:46.654Z,92.83
2023-04-24T01:15:46.628Z,92.93
2023-04-24T01:16:46.615Z,92.93
2023-04-24T01:17:46.612Z,92.83
2023-04-24T01:18:46.577Z,93.03
2023-04-24T01:19:46.576Z,93.03
2023-04-24T01:20:46.554Z,92.83
2023-04-24T01:21:46.544Z,92.83
2023-04-24T01:22:46.530Z,92.93
2023-04-24T01:23:46.518Z,92.83
2023-04-24T01:24:46.499Z,92.62
2023-04-24T01:25:46.505Z,92.52
2023-04-24T01:26:46.472Z,92.17
2023-04-24T01:27:46.460Z,92.17
2023-04-24T01:28:46.458Z,92.27
2023-04-24T01:29:46.421Z,92.37
2023-04-24T01:30:46.443Z,92.07
2023-04-24T01:31:46.535Z,91.76
2023-04-24T01:32:46.433Z,91.76
2023-04-24T01:33:46.383Z,91.56
2023-04-24T01:34:46.380Z,91.56
2023-04-24T01:35:46.369Z,91.46
2023-04-24T01:36:46.368Z,91.31
2023-04-24T01:37:46.392Z,91.20
2023-04-24T01:38:46.328Z,91.31
2023-04-24T01:39:46.307Z,91.31
2023-04-24T01:40:46.323Z,91.41
2023-04-24T01:41:46.263Z,91.41
2023-04-24T01:42:46.267Z,91.31
2023-04-24T01:43:46.334Z,91.11
2023-04-24T01:44:46.238Z,91.00
2023-04-24T01:45:46.241Z,90.90
2023-04-24T01:46:46.240Z,90.90
2023-04-24T01:47:46.245Z,90.90
2023-04-24T01:48:46.187Z,90.59
2023-04-24T01:49:46.260Z,90.39
2023-04-24T01:50:46.186Z,90.39
2023-04-24T01:51:46.140Z,90.49
2023-04-24T01:52:46.132Z,90.90
2023-04-24T01:53:46.109Z,90.80
2023-04-24T01:54:46.116Z,90.80
2023-04-24T01:55:46.101Z,90.70
2023-04-24T01:56:46.089Z,90.80
2023-04-24T01:57:46.060Z,90.70
2023-04-24T01:58:46.053Z,90.59
2023-04-24T01:59:46.049Z,90.59
2023-04-24T02:00:46.050Z,90.39
2023-04-24T02:01:46.032Z,90.19
2023-04-24T02:02:48.169Z,90.39
2023-04-24T02:03:46.183Z,90.70
2023-04-24T02:04:45.967Z,91.11
2023-04-24T02:05:45.976Z,91.05
2023-04-24T02:06:45.966Z,90.84
2023-04-24T02:07:45.964Z,90.84
2023-04-24T02:08:45.913Z,90.94
2023-04-24T02:09:45.888Z,91.15
2023-04-24T02:10:45.893Z,91.25
2023-04-24T02:11:45.888Z,91.35
2023-04-24T02:12:45.841Z,91.56
2023-04-24T02:13:45.851Z,91.66
2023-04-24T02:14:45.837Z,91.66
2023-04-24T02:15:45.848Z,91.35
2023-04-24T02:16:46.048Z,90.23
2023-04-24T02:17:45.925Z,89.72
2023-04-24T02:18:45.785Z,89.51
2023-04-24T02:19:45.807Z,89.20
2023-04-24T02:20:45.756Z,88.59
2023-04-24T02:21:45.767Z,88.29
2023-04-24T02:22:45.724Z,87.77
2023-04-24T02:23:45.718Z,87.73
2023-04-24T02:24:45.697Z,87.06
2023-04-24T02:25:45.715Z,86.30
2023-04-24T02:26:45.695Z,86.04
2023-04-24T02:27:45.652Z,86.20
2023-04-24T02:28:45.706Z,86.20
2023-04-24T02:29:45.896Z,85.69
2023-04-24T02:30:45.643Z,85.63
2023-04-24T02:31:45.689Z,85.83
2023-04-24T02:32:45.606Z,86.44
2023-04-24T02:33:45.585Z,86.44
2023-04-24T02:34:45.566Z,86.04
2023-04-24T02:35:45.557Z,86.04
2023-04-24T02:36:45.566Z,85.63
2023-04-24T02:37:45.530Z,85.73
2023-04-24T02:38:45.543Z,85.42
2023-04-24T02:39:45.501Z,85.12
2023-04-24T02:40:45.480Z,85.32
2023-04-24T02:41:45.501Z,85.42
2023-04-24T02:42:45.456Z,85.02
2023-04-24T02:43:45.448Z,84.91
2023-04-24T02:44:45.423Z,84.71
2023-04-24T02:45:45.482Z,84.30
2023-04-24T02:46:45.420Z,84.30
2023-04-24T02:47:45.460Z,84.50
2023-04-24T02:48:45.394Z,84.20
2023-04-24T02:49:45.521Z,83.79
2023-04-24T02:50:45.345Z,83.59
2023-04-24T02:51:45.348Z,83.89
2023-04-24T02:52:45.326Z,84.00
2023-04-24T02:53:45.314Z,83.48
2023-04-24T02:54:45.309Z,83.48
2023-04-24T02:55:45.286Z,83.79
2023-04-24T02:56:45.291Z,84.41
2023-04-24T02:57:45.265Z,83.89
2023-04-24T02:58:45.247Z,83.07
2023-04-24T02:59:45.265Z,83.18
2023-04-24T03:00:45.212Z,83.69
2023-04-24T03:01:45.543Z,83.59
2023-04-24T03:02:45.413Z,83.07
2023-04-24T03:03:45.349Z,83.07
2023-04-24T03:04:45.262Z,82.70
2023-04-24T03:05:45.162Z,82.29
2023-04-24T03:06:45.149Z,82.70
2023-04-24T03:07:45.129Z,82.70
2023-04-24T03:08:45.103Z,82.50
2023-04-24T03:09:45.333Z,82.29
2023-04-24T03:10:46.998Z,82.40
2023-04-24T03:11:45.079Z,82.81
2023-04-24T03:12:45.060Z,82.20
2023-04-24T03:13:45.050Z,81.99
2023-04-24T03:14:45.029Z,82.20
2023-04-24T03:15:45.046Z,82.29
2023-04-24T03:16:45.024Z,81.48
2023-04-24T03:17:45.051Z,80.97
2023-04-24T03:18:44.977Z,81.79
2023-04-24T03:19:45.185Z,81.68
2023-04-24T03:20:44.952Z,81.07
2023-04-24T03:21:44.954Z,80.87
2023-04-24T03:22:44.924Z,80.46
2023-04-24T03:23:44.911Z,80.46
2023-04-24T03:24:44.937Z,80.97
2023-04-24T03:25:44.895Z,81.07
2023-04-24T03:26:44.909Z,81.58
2023-04-24T03:27:44.866Z,81.58
2023-04-24T03:28:44.846Z,81.48
2023-04-24T03:29:45.001Z,80.66
2023-04-24T03:30:44.825Z,80.66
2023-04-24T03:31:44.881Z,80.76
2023-04-24T03:32:44.847Z,80.66
2023-04-24T03:33:44.801Z,80.56
2023-04-24T03:34:44.754Z,80.76
2023-04-24T03:35:44.756Z,80.05
2023-04-24T03:36:44.751Z,80.56
2023-04-24T03:37:44.736Z,80.56
2023-04-24T03:38:44.711Z,81.10
2023-04-24T03:39:45.169Z,81.72
2023-04-24T03:40:44.681Z,80.29
2023-04-24T03:41:44.694Z,80.69
2023-04-24T03:42:44.674Z,80.83
2023-04-24T03:43:44.648Z,81.04
2023-04-24T03:44:44.652Z,81.96
2023-04-24T03:45:44.607Z,80.74
2023-04-24T03:46:44.657Z,80.02
2023-04-24T03:47:44.621Z,79.91
2023-04-24T03:48:44.584Z,79.75
2023-04-24T03:49:44.757Z,79.24
2023-04-24T03:50:44.561Z,79.10
2023-04-24T03:51:44.554Z,79.82
2023-04-24T03:52:44.536Z,80.67
2023-04-24T03:53:44.517Z,81.38
2023-04-24T03:54:44.590Z,79.85
2023-04-24T03:55:44.492Z,78.63
2023-04-24T03:56:44.504Z,78.52
2023-04-24T03:57:44.464Z,79.00
2023-04-24T03:58:44.424Z,79.00
2023-04-24T03:59:44.632Z,78.38
2023-04-24T04:00:44.424Z,78.49
2023-04-24T04:01:44.426Z,79.10
2023-04-24T04:02:44.517Z,78.79
2023-04-24T04:03:44.616Z,78.49
2023-04-24T04:04:44.615Z,78.69
2023-04-24T04:05:44.349Z,78.59
2023-04-24T04:06:44.344Z,78.69
2023-04-24T04:07:44.325Z,78.69
2023-04-24T04:08:44.302Z,78.17
2023-04-24T04:09:44.574Z,77.67
2023-04-24T04:10:44.282Z,77.39
2023-04-24T04:11:44.280Z,76.47
2023-04-24T04:12:44.253Z,77.19
2023-04-24T04:13:44.240Z,77.09
2023-04-24T04:14:44.233Z,75.86
2023-04-24T04:15:44.213Z,75.86
2023-04-24T04:16:44.301Z,75.79
2023-04-24T04:17:44.251Z,75.79
2023-04-24T04:18:44.169Z,74.56
2023-04-24T04:19:44.587Z,74.56
2023-04-24T04:20:44.142Z,74.46
2023-04-24T04:21:44.149Z,74.97
2023-04-24T04:22:44.745Z,75.79
2023-04-24T04:23:44.110Z,74.97
2023-04-24T04:24:44.159Z,74.80
2023-04-24T04:25:44.079Z,74.90
2023-04-24T04:26:44.075Z,73.68
2023-04-24T04:27:44.053Z,73.68
2023-04-24T04:28:44.038Z,74.08
2023-04-24T04:29:44.273Z,73.78
2023-04-24T04:30:44.004Z,73.47
2023-04-24T04:31:44.060Z,72.96
2023-04-24T04:32:43.982Z,73.57
2023-04-24T04:33:44.106Z,74.70
2023-04-24T04:34:43.946Z,74.90
2023-04-24T04:35:43.953Z,74.12
2023-04-24T04:36:43.959Z,73.40
2023-04-24T04:37:43.928Z,73.10
2023-04-24T04:38:43.962Z,73.68
2023-04-24T04:39:44.189Z,73.88
2023-04-24T04:40:43.909Z,74.08
2023-04-24T04:41:43.875Z,74.80
2023-04-24T04:42:43.836Z,74.29
2023-04-24T04:43:43.823Z,75.31
2023-04-24T04:44:43.821Z,75.42
2023-04-24T04:45:43.850Z,75.52
2023-04-24T04:46:43.803Z,76.75
2023-04-24T04:47:43.803Z,75.62
2023-04-24T04:48:43.760Z,74.08
2023-04-24T04:49:43.897Z,73.78
2023-04-24T04:50:43.762Z,73.78
2023-04-24T04:51:43.733Z,80.51
2023-04-24T04:52:43.704Z,82.24
2023-04-24T04:53:43.694Z,83.33
2023-04-24T04:54:43.682Z,84.11
2023-04-24T04:55:43.660Z,87.14
2023-04-24T04:56:43.685Z,85.36
2023-04-24T04:57:43.648Z,83.42
2023-04-24T04:58:43.621Z,80.21
2023-04-24T04:59:43.873Z,80.32
2023-04-24T05:00:43.596Z,79.46
2023-04-24T05:01:43.649Z,76.06
2023-04-24T05:02:43.733Z,77.79
2023-04-24T05:03:43.727Z,76.43
2023-04-24T05:04:43.981Z,76.22
2023-04-24T05:05:43.546Z,75.27
2023-04-24T05:06:43.553Z,70.40
2023-04-24T05:07:43.504Z,69.29
2023-04-24T05:08:43.498Z,70.37
2023-04-24T05:09:43.658Z,71.29
2023-04-24T05:10:43.645Z,72.24
2023-04-24T05:11:43.457Z,73.10
2023-04-24T05:12:46.190Z,73.44
2023-04-24T05:13:43.482Z,73.88
2023-04-24T05:14:43.422Z,73.68
2023-04-24T05:15:43.400Z,74.39
2023-04-24T05:16:43.411Z,74.53
2023-04-24T05:17:43.492Z,75.86
2023-04-24T05:18:43.363Z,76.17
2023-04-24T05:19:43.595Z,75.99
2023-04-24T05:20:43.337Z,76.20
2023-04-24T05:21:43.348Z,76.61
2023-04-24T05:22:43.307Z,76.31
2023-04-24T05:23:43.276Z,76.10
2023-04-24T05:24:43.285Z,74.97
2023-04-24T05:25:43.266Z,76.10
2023-04-24T05:26:43.269Z,76.61
2023-04-24T05:27:43.229Z,75.79
2023-04-24T05:28:43.211Z,75.18
2023-04-24T05:29:43.459Z,75.69
2023-04-24T05:30:43.192Z,76.20
2023-04-24T05:31:43.239Z,76.51
2023-04-24T05:32:43.196Z,74.97
2023-04-24T05:33:43.157Z,74.26
2023-04-24T05:34:43.147Z,74.66
2023-04-24T05:35:43.136Z,74.56
2023-04-24T05:36:43.149Z,74.87
2023-04-24T05:37:43.099Z,73.03
2023-04-24T05:38:43.124Z,72.82
2023-04-24T05:39:43.351Z,74.15
2023-04-24T05:40:43.080Z,72.48
2023-04-24T05:41:43.075Z,72.00
2023-04-24T05:42:43.040Z,72.72
2023-04-24T05:43:43.030Z,72.92
2023-04-24T05:44:43.020Z,71.90
2023-04-24T05:45:43.018Z,71.28
2023-04-24T05:46:43.111Z,71.69
2023-04-24T05:47:43.006Z,71.97
2023-04-24T05:48:43.977Z,72.58
2023-04-24T05:49:43.198Z,72.99
2023-04-24T05:50:42.917Z,71.86
2023-04-24T05:51:42.921Z,71.36
2023-04-24T05:52:42.947Z,72.17
2023-04-24T05:53:42.896Z,72.58
2023-04-24T05:54:42.876Z,72.89
2023-04-24T05:55:42.865Z,71.25
2023-04-24T05:56:43.305Z,71.77
2023-04-24T05:57:42.896Z,71.97
2023-04-24T05:58:42.827Z,71.36
2023-04-24T05:59:43.060Z,71.25
2023-04-24T06:00:43.095Z,71.77
2023-04-24T06:01:42.868Z,71.66
2023-04-24T06:02:42.921Z,72.17
2023-04-24T06:03:42.861Z,73.44
2023-04-24T06:04:42.906Z,73.03
2023-04-24T06:05:42.730Z,73.71
2023-04-24T06:06:43.123Z,71.90
2023-04-24T06:07:42.863Z,71.80
2023-04-24T06:08:42.720Z,72.82
2023-04-24T06:09:43.024Z,71.80
2023-04-24T06:10:42.675Z,72.41
2023-04-24T06:11:42.646Z,72.52
2023-04-24T06:12:42.729Z,72.58
2023-04-24T06:13:42.628Z,73.85
2023-04-24T06:14:42.620Z,74.26
2023-04-24T06:15:42.597Z,72.89
2023-04-24T06:16:42.647Z,71.80
2023-04-24T06:17:42.661Z,71.49
2023-04-24T06:18:42.568Z,71.90
2023-04-24T06:19:42.815Z,72.41
2023-04-24T06:20:42.567Z,72.31
2023-04-24T06:21:42.515Z,72.72
2023-04-24T06:22:42.530Z,73.03
2023-04-24T06:23:42.492Z,72.82
2023-04-24T06:24:42.501Z,71.69
2023-04-24T06:25:42.461Z,70.57
2023-04-24T06:26:42.467Z,72.00
2023-04-24T06:27:42.458Z,72.20
2023-04-24T06:28:42.436Z,73.44
2023-04-24T06:29:42.610Z,73.03
2023-04-24T06:30:42.407Z,73.13
2023-04-24T06:31:42.417Z,73.13
2023-04-24T06:32:42.401Z,72.31
2023-04-24T06:33:42.380Z,72.20
2023-04-24T06:34:42.342Z,72.61
2023-04-24T06:35:42.321Z,72.92
2023-04-24T06:36:42.317Z,72.41
2023-04-24T06:37:42.316Z,72.41
2023-04-24T06:38:42.320Z,72.61
2023-04-24T06:39:42.544Z,72.72
2023-04-24T06:40:42.278Z,72.72
2023-04-24T06:41:42.252Z,73.74
2023-04-24T06:42:42.260Z,73.64
2023-04-24T06:43:42.229Z,72.00
2023-04-24T06:44:42.304Z,71.49
2023-04-24T06:45:42.215Z,71.80
2023-04-24T06:46:42.227Z,71.49
2023-04-24T06:47:42.232Z,71.59
2023-04-24T06:48:42.158Z,71.59
2023-04-24T06:49:42.371Z,72.31
2023-04-24T06:50:42.138Z,73.33
2023-04-24T06:51:42.119Z,73.33
2023-04-24T06:52:42.298Z,72.82
2023-04-24T06:53:42.086Z,72.82
2023-04-24T06:54:42.092Z,73.13
2023-04-24T06:55:42.080Z,71.80
2023-04-24T06:56:42.066Z,70.98
2023-04-24T06:57:42.046Z,71.59
2023-04-24T06:58:42.069Z,71.69
2023-04-24T06:59:42.233Z,71.97
2023-04-24T07:00:41.998Z,71.45
2023-04-24T07:01:41.990Z,71.86
2023-04-24T07:02:42.130Z,71.66
2023-04-24T07:03:42.075Z,72.07
2023-04-24T07:04:42.030Z,71.45
2023-04-24T07:05:41.931Z,71.22
2023-04-24T07:06:41.918Z,70.94
2023-04-24T07:07:41.922Z,71.01
2023-04-24T07:08:41.918Z,70.81
2023-04-24T07:09:42.076Z,70.50
2023-04-24T07:10:41.865Z,70.50
2023-04-24T07:11:41.870Z,71.01
2023-04-24T07:12:41.863Z,70.50
2023-04-24T07:13:41.830Z,70.20
2023-04-24T07:14:41.815Z,71.53
2023-04-24T07:15:41.834Z,70.20
2023-04-24T07:16:41.839Z,69.38
2023-04-24T07:17:41.834Z,69.68
2023-04-24T07:18:41.762Z,69.75
2023-04-24T07:19:42.036Z,69.75
2023-04-24T07:20:41.736Z,69.45
2023-04-24T07:21:41.715Z,70.16
2023-04-24T07:22:41.729Z,69.85
2023-04-24T07:23:41.695Z,70.57
2023-04-24T07:24:41.682Z,69.55
2023-04-24T07:25:41.664Z,69.34
2023-04-24T07:26:41.655Z,69.75
2023-04-24T07:27:41.645Z,69.75
2023-04-24T07:28:41.626Z,70.37
2023-04-24T07:29:42.107Z,70.16
2023-04-24T07:30:41.603Z,70.67
2023-04-24T07:31:41.638Z,70.57
2023-04-24T07:32:41.643Z,69.65
2023-04-24T07:33:41.563Z,69.75
2023-04-24T07:34:41.539Z,69.45
2023-04-24T07:35:41.552Z,68.32
2023-04-24T07:36:41.524Z,68.12
2023-04-24T07:37:41.536Z,68.42
2023-04-24T07:38:41.541Z,68.22
2023-04-24T07:39:41.787Z,68.93
2023-04-24T07:40:41.468Z,69.96
2023-04-24T07:41:41.452Z,69.24
2023-04-24T07:42:41.584Z,68.22
2023-04-24T07:43:41.423Z,67.50
2023-04-24T07:44:41.410Z,67.50
2023-04-24T07:45:41.400Z,67.60
2023-04-24T07:46:41.415Z,68.12
2023-04-24T07:47:41.540Z,68.73
2023-04-24T07:48:41.361Z,68.93
2023-04-24T07:49:41.727Z,70.26
2023-04-24T07:50:41.341Z,69.85
2023-04-24T07:51:41.357Z,68.32
2023-04-24T07:52:41.326Z,68.12
2023-04-24T07:53:41.283Z,68.32
2023-04-24T07:54:41.507Z,68.93
2023-04-24T07:55:41.306Z,69.04
2023-04-24T07:56:41.254Z,68.52
2023-04-24T07:57:41.243Z,68.60
2023-04-24T07:58:41.242Z,68.80
2023-04-24T07:59:41.278Z,68.08
2023-04-24T08:00:41.207Z,67.98
2023-04-24T08:01:41.193Z,68.39
2023-04-24T08:02:41.369Z,68.90
2023-04-24T08:03:41.363Z,68.90
2023-04-24T08:04:41.352Z,68.90
2023-04-24T08:05:41.317Z,69.21
2023-04-24T08:06:41.122Z,70.34
2023-04-24T08:07:41.133Z,70.84
2023-04-24T08:08:41.094Z,70.13
2023-04-24T08:09:41.141Z,69.72
2023-04-24T08:10:41.070Z,69.82
2023-04-24T08:11:41.120Z,69.62
2023-04-24T08:12:41.060Z,69.11
2023-04-24T08:13:41.026Z,69.93
2023-04-24T08:14:41.244Z,69.62
2023-04-24T08:15:41.094Z,68.70
2023-04-24T08:16:41.093Z,69.11
2023-04-24T08:17:41.276Z,69.82
2023-04-24T08:18:40.949Z,68.90
2023-04-24T08:19:41.186Z,68.60
2023-04-24T08:20:40.931Z,68.60
2023-04-24T08:21:40.927Z,68.97
2023-04-24T08:22:40.989Z,69.31
2023-04-24T08:23:40.873Z,68.87
2023-04-24T08:24:40.882Z,69.18
2023-04-24T08:25:40.854Z,69.59
2023-04-24T08:26:40.855Z,69.59
2023-04-24T08:27:40.837Z,69.69
2023-04-24T08:28:40.819Z,68.66
2023-04-24T08:29:40.925Z,68.46
2023-04-24T08:30:40.800Z,68.87
2023-04-24T08:31:40.801Z,69.07
2023-04-24T08:32:40.854Z,69.48
2023-04-24T08:33:40.748Z,69.38
2023-04-24T08:34:40.760Z,69.38
2023-04-24T08:35:40.736Z,70.20
2023-04-24T08:36:47.160Z,70.71
2023-04-24T08:37:41.727Z,70.30
2023-04-24T08:38:42.697Z,70.20
2023-04-24T08:39:40.801Z,69.89
2023-04-24T08:40:40.666Z,69.79
2023-04-24T08:41:40.644Z,69.28
2023-04-24T08:42:40.661Z,69.07
2023-04-24T08:43:40.646Z,69.52
2023-04-24T08:44:40.632Z,70.00
2023-04-24T08:45:40.639Z,70.20
2023-04-24T08:46:40.629Z,69.42
2023-04-24T08:47:40.685Z,69.62
2023-04-24T08:48:40.558Z,69.52
2023-04-24T08:49:40.581Z,70.23
2023-04-24T08:50:40.532Z,70.30
2023-04-24T08:51:40.526Z,69.52
2023-04-24T08:52:40.532Z,69.93
2023-04-24T08:53:40.501Z,70.03
2023-04-24T08:54:40.487Z,70.23
2023-04-24T08:55:40.469Z,70.43
2023-04-24T08:56:40.442Z,70.54
2023-04-24T08:57:40.513Z,71.01
2023-04-24T08:58:40.416Z,71.22
2023-04-24T08:59:40.431Z,70.40
2023-04-24T09:00:40.414Z,69.52
2023-04-24T09:01:40.439Z,69.93
2023-04-24T09:02:40.492Z,70.54
2023-04-24T09:03:40.477Z,70.92
2023-04-24T09:04:40.448Z,70.00
2023-04-24T09:05:40.327Z,70.84
2023-04-24T09:06:40.312Z,70.13
2023-04-24T09:07:40.354Z,70.43
2023-04-24T09:08:40.287Z,70.13
2023-04-24T09:09:40.337Z,70.40
2023-04-24T09:10:40.253Z,71.12
2023-04-24T09:11:40.250Z,71.73
2023-04-24T09:12:40.247Z,71.01
2023-04-24T09:13:40.216Z,72.04
2023-04-24T09:14:40.216Z,72.24
2023-04-24T09:15:40.216Z,72.24
2023-04-24T09:16:40.232Z,73.36
2023-04-24T09:17:40.224Z,74.18
2023-04-24T09:18:40.154Z,72.65
2023-04-24T09:19:40.334Z,72.89
2023-04-24T09:20:40.114Z,73.71
2023-04-24T09:21:40.126Z,74.32
2023-04-24T09:22:40.121Z,73.91
2023-04-24T09:23:40.094Z,73.81
2023-04-24T09:24:40.071Z,73.81
2023-04-24T09:25:40.059Z,74.02
2023-04-24T09:26:40.041Z,73.81
2023-04-24T09:27:40.046Z,74.73
2023-04-24T09:28:40.356Z,75.04
2023-04-24T09:29:40.035Z,75.04
2023-04-24T09:30:40.000Z,75.55
2023-04-24T09:31:40.022Z,75.85
2023-04-24T09:32:39.984Z,75.04
2023-04-24T09:33:39.982Z,74.73
2023-04-24T09:34:39.943Z,75.04
2023-04-24T09:35:39.918Z,74.32
2023-04-24T09:36:39.933Z,73.61
2023-04-24T09:37:43.513Z,74.32
2023-04-24T09:38:39.917Z,74.73
2023-04-24T09:39:39.876Z,75.04
2023-04-24T09:40:41.626Z,75.04
2023-04-24T09:41:39.850Z,75.04
2023-04-24T09:42:39.838Z,74.32
2023-04-24T09:43:39.848Z,74.56
2023-04-24T09:44:39.818Z,75.65
2023-04-24T09:45:39.822Z,76.37
2023-04-24T09:46:39.832Z,77.08
2023-04-24T09:47:39.822Z,75.55
2023-04-24T09:48:39.793Z,75.89
2023-04-24T09:49:39.766Z,76.09
2023-04-24T09:50:39.733Z,77.39
2023-04-24T09:51:39.720Z,77.83
2023-04-24T09:52:39.706Z,78.24
2023-04-24T09:53:39.709Z,78.45
2023-04-24T09:54:39.680Z,79.57
2023-04-24T09:55:39.658Z,78.86
2023-04-24T09:56:39.651Z,79.91
2023-04-24T09:57:39.675Z,82.27
2023-04-24T09:58:39.632Z,83.33
2023-04-24T09:59:39.612Z,83.03
2023-04-24T10:00:39.613Z,83.64
2023-04-24T10:01:39.629Z,82.96
2023-04-24T10:02:39.609Z,83.78
2023-04-24T10:03:39.680Z,84.39
2023-04-24T10:04:39.561Z,85.01
2023-04-24T10:05:39.538Z,85.31
2023-04-24T10:06:39.531Z,83.55
2023-04-24T10:07:39.496Z,84.88
2023-04-24T10:08:39.580Z,85.39
2023-04-24T10:09:39.479Z,86.22
2023-04-24T10:10:39.448Z,87.34
2023-04-24T10:11:39.480Z,88.47
2023-04-24T10:12:39.447Z,87.71
2023-04-24T10:13:39.466Z,87.71
2023-04-24T10:14:39.412Z,87.41
2023-04-24T10:15:39.435Z,86.07
2023-04-24T10:16:39.413Z,85.97
2023-04-24T10:17:39.402Z,86.99
2023-04-24T10:18:39.462Z,85.87
2023-04-24T10:19:39.343Z,86.38
2023-04-24T10:20:39.323Z,87.51
2023-04-24T10:21:39.311Z,87.57
2023-04-24T10:22:39.294Z,88.39
2023-04-24T10:23:39.382Z,87.06
2023-04-24T10:24:39.270Z,86.75
2023-04-24T10:25:39.267Z,87.02
2023-04-24T10:26:39.277Z,87.63
2023-04-24T10:27:39.232Z,87.84
2023-04-24T10:28:39.238Z,87.38
2023-04-24T10:29:39.221Z,87.90
2023-04-24T10:30:39.197Z,87.29
2023-04-24T10:31:39.283Z,86.88
2023-04-24T10:32:39.281Z,86.43
2023-04-24T10:33:39.171Z,86.73
2023-04-24T10:34:39.137Z,86.63
2023-04-24T10:35:39.131Z,87.00
2023-04-24T10:36:39.107Z,87.88
2023-04-24T10:37:39.102Z,84.94
2023-04-24T10:38:39.128Z,82.42
2023-04-24T10:39:39.118Z,82.79
2023-04-24T10:40:39.054Z,81.81
2023-04-24T10:41:39.081Z,80.99
2023-04-24T10:42:39.030Z,81.81
2023-04-24T10:43:39.055Z,83.38
2023-04-24T10:44:39.016Z,83.69
2023-04-24T10:45:38.990Z,82.46
2023-04-24T10:46:38.985Z,82.46
2023-04-24T10:47:39.010Z,80.97
2023-04-24T10:48:38.968Z,81.88
2023-04-24T10:49:38.948Z,83.73
2023-04-24T10:50:38.909Z,84.55
2023-04-24T10:51:38.924Z,85.83
2023-04-24T10:52:38.900Z,83.07
2023-04-24T10:53:38.915Z,84.09
2023-04-24T10:54:38.869Z,83.65
2023-04-24T10:55:38.851Z,84.36
2023-04-24T10:56:38.841Z,85.18
2023-04-24T10:57:38.831Z,83.34
2023-04-24T10:58:38.830Z,81.40
2023-04-24T10:59:38.836Z,80.89
2023-04-24T11:00:38.843Z,80.79
2023-04-24T11:01:38.782Z,80.21
2023-04-24T11:02:38.879Z,81.54
2023-04-24T11:03:39.038Z,82.26
2023-04-24T11:04:38.805Z,80.01
2023-04-24T11:05:38.733Z,81.03
2023-04-24T11:06:38.745Z,80.01
2023-04-24T11:07:38.770Z,80.35
2023-04-24T11:08:38.725Z,80.97
2023-04-24T11:09:38.693Z,81.07
2023-04-24T11:10:38.653Z,81.17
2023-04-24T11:11:38.646Z,80.87
2023-04-24T11:12:38.677Z,81.99
2023-04-24T11:13:38.666Z,80.76
2023-04-24T11:14:38.605Z,79.43
2023-04-24T11:15:38.598Z,80.05
2023-04-24T11:16:38.627Z,81.58
2023-04-24T11:17:38.671Z,81.88
2023-04-24T11:18:38.583Z,81.48
2023-04-24T11:19:38.588Z,82.40
2023-04-24T11:20:38.518Z,79.43
2023-04-24T11:21:38.516Z,80.11
2023-04-24T11:22:38.500Z,81.24
2023-04-24T11:23:38.537Z,82.15
2023-04-24T11:24:38.506Z,81.03
2023-04-24T11:25:38.486Z,81.95
2023-04-24T11:26:38.456Z,80.83
2023-04-24T11:27:38.412Z,81.13
2023-04-24T11:28:39.009Z,80.32
2023-04-24T11:29:38.460Z,79.80
2023-04-24T11:30:38.405Z,80.32
2023-04-24T11:31:38.462Z,80.52
2023-04-24T11:32:38.403Z,81.24
2023-04-24T11:33:38.349Z,80.93
2023-04-24T11:34:38.342Z,80.52
2023-04-24T11:35:38.342Z,80.01
2023-04-24T11:36:38.312Z,80.73
2023-04-24T11:37:38.298Z,80.93
2023-04-24T11:38:38.278Z,81.34
2023-04-24T11:39:38.305Z,79.29
2023-04-24T11:40:38.258Z,79.19
2023-04-24T11:41:38.254Z,79.50
2023-04-24T11:42:38.219Z,79.91
2023-04-24T11:43:38.224Z,80.01
2023-04-24T11:44:38.214Z,80.62
2023-04-24T11:45:45.801Z,80.42
2023-04-24T11:46:38.204Z,82.36
2023-04-24T11:47:38.352Z,79.64
2023-04-24T11:48:38.192Z,80.60
2023-04-24T11:49:38.141Z,80.80
2023-04-24T11:50:38.401Z,80.02
2023-04-24T11:51:52.023Z,78.11
2023-04-24T11:52:39.122Z,78.86
2023-04-24T11:53:38.050Z,80.09
2023-04-24T11:54:38.088Z,79.62
2023-04-24T11:55:38.072Z,80.13
2023-04-24T11:56:38.780Z,80.78
2023-04-24T11:57:38.140Z,82.83
2023-04-24T11:58:37.983Z,83.34
2023-04-24T11:59:38.107Z,84.88
2023-04-24T12:00:38.255Z,85.60
2023-04-24T12:01:37.942Z,85.50
2023-04-24T12:02:40.139Z,86.18
2023-04-24T12:03:38.141Z,87.10
2023-04-24T12:04:38.218Z,91.42
2023-04-24T12:05:38.091Z,89.33
2023-04-24T12:06:37.895Z,86.73
2023-04-24T12:07:38.157Z,85.57
2023-04-24T12:08:38.542Z,87.02
2023-04-24T12:09:38.238Z,84.63
2023-04-24T12:10:37.818Z,83.57
2023-04-24T12:11:37.854Z,82.75
2023-04-24T12:12:37.901Z,82.51
2023-04-24T12:13:37.822Z,81.80
2023-04-24T12:14:37.788Z,77.34
2023-04-24T12:15:37.820Z,79.93
2023-04-24T12:16:37.923Z,83.40
2023-04-24T12:17:37.972Z,80.48
2023-04-24T12:18:37.799Z,82.32
2023-04-24T12:19:37.874Z,83.61
2023-04-24T12:20:37.689Z,81.26
2023-04-24T12:21:37.895Z,82.96
2023-04-24T12:22:37.665Z,83.98
2023-04-24T12:23:37.712Z,81.09
2023-04-24T12:24:37.653Z,80.78
2023-04-24T12:25:37.870Z,83.12
2023-04-24T12:26:37.695Z,79.66
2023-04-24T12:27:37.594Z,80.16
2023-04-24T12:28:37.942Z,79.75
2023-04-24T12:29:37.916Z,79.28
2023-04-24T12:30:37.618Z,80.30
2023-04-24T12:31:37.730Z,79.22
2023-04-24T12:32:37.709Z,79.22
2023-04-24T12:33:37.775Z,81.26
2023-04-24T12:34:37.643Z,81.84
2023-04-24T12:35:37.619Z,82.88
2023-04-24T12:36:37.491Z,81.72
2023-04-24T12:37:37.554Z,80.46
2023-04-24T12:38:37.585Z,78.89
2023-04-24T12:39:37.532Z,78.89
2023-04-24T12:40:37.493Z,78.76
2023-04-24T12:41:37.698Z,75.91
2023-04-24T12:42:37.490Z,75.20
2023-04-24T12:43:37.606Z,78.49
2023-04-24T12:44:37.512Z,79.61
2023-04-24T12:45:37.386Z,72.92
2023-04-24T12:46:37.443Z,73.47
2023-04-24T12:47:37.331Z,75.85
2023-04-24T12:48:37.407Z,78.91
2023-04-24T12:49:37.306Z,78.60
2023-04-24T12:50:37.360Z,78.60
2023-04-24T12:51:37.426Z,77.89
2023-04-24T12:52:37.403Z,77.89